Time;durP1;ratioP1;P1;durP2;ratioP2;P2;SDS_P1;SDS_P2;PMS_P1;PMS_P2;Temp;Humidity;BMP_temperature;BMP_pressure;BME280_temperature;BME280_humidity;BME280_pressure;Samples;Min_cycle;Max_cycle;Signal;HPM_P1;HPM_P2
2022/04/11 00:01:52;;;;;;;3.03;1.30;;;12.30;66.80;;;;;;5020688;28;20049;-76
2022/04/11 00:04:19;;;;;;;2.17;1.40;;;12.40;66.90;;;;;;5021853;28;20042;-78
2022/04/11 00:06:46;;;;;;;1.80;1.25;;;12.40;66.70;;;;;;5017924;28;20059;-75
2022/04/11 00:09:13;;;;;;;2.63;1.52;;;12.40;66.80;;;;;;5016947;28;20045;-78
2022/04/11 00:11:42;;;;;;;2.00;1.30;;;12.30;66.90;;;;;;5024641;28;20033;-74
2022/04/11 00:14:09;;;;;;;2.15;1.30;;;12.30;66.80;;;;;;5024600;28;20045;-76
2022/04/11 00:16:36;;;;;;;1.85;1.30;;;12.30;66.70;;;;;;5021559;28;20104;-74
2022/04/11 00:19:03;;;;;;;1.88;1.20;;;12.30;66.70;;;;;;5006732;28;20110;-76
2022/04/11 00:21:30;;;;;;;2.25;1.20;;;12.40;66.90;;;;;;5029620;28;20121;-75
2022/04/11 00:23:56;;;;;;;2.03;1.30;;;12.30;66.70;;;;;;5020710;28;20047;-77
2022/04/11 00:26:24;;;;;;;2.60;1.10;;;12.30;66.60;;;;;;5022541;28;20060;-76
2022/04/11 00:28:53;;;;;;;2.88;1.30;;;12.30;66.60;;;;;;5022755;28;20072;-75
2022/04/11 00:31:20;;;;;;;2.38;1.27;;;12.40;66.70;;;;;;5021409;28;20052;-75
2022/04/11 00:33:47;;;;;;;2.30;1.40;;;12.30;66.70;;;;;;5020011;28;20045;-76
2022/04/11 00:36:14;;;;;;;2.00;1.35;;;12.40;66.90;;;;;;5017143;28;20213;-75
2022/04/11 00:38:41;;;;;;;2.10;1.10;;;12.30;66.60;;;;;;5007347;28;20107;-77
2022/04/11 00:41:08;;;;;;;2.10;1.30;;;12.30;66.60;;;;;;5007785;28;20168;-77
2022/04/11 00:43:36;;;;;;;2.22;1.45;;;12.30;66.70;;;;;;5022560;28;20179;-75
2022/04/11 00:46:06;;;;;;;2.70;1.60;;;12.30;66.80;;;;;;5022207;28;20136;-76
2022/04/11 00:48:34;;;;;;;1.65;1.10;;;12.30;66.90;;;;;;5003060;28;20056;-74
2022/04/11 00:51:03;;;;;;;2.75;1.23;;;12.30;67.00;;;;;;5022748;28;20046;-74
2022/04/11 00:53:32;;;;;;;2.60;1.33;;;12.30;66.90;;;;;;5020376;28;20491;-78
2022/04/11 00:56:00;;;;;;;2.00;1.33;;;12.30;67.00;;;;;;5020609;28;20530;-77
2022/04/11 00:58:30;;;;;;;2.75;1.38;;;12.30;67.00;;;;;;5014467;28;20065;-76
2022/04/11 01:00:57;;;;;;;1.88;1.20;;;12.30;66.90;;;;;;5017824;28;20050;-75
2022/04/11 01:03:25;;;;;;;2.75;1.40;;;12.30;67.00;;;;;;5018083;28;20069;-76
2022/04/11 01:05:52;;;;;;;2.00;1.23;;;12.30;66.90;;;;;;5023322;28;20044;-76
2022/04/11 01:08:19;;;;;;;2.00;1.27;;;12.30;66.90;;;;;;5021024;28;20158;-78
2022/04/11 01:10:47;;;;;;;2.00;1.20;;;12.30;66.90;;;;;;5020370;28;20041;-76
2022/04/11 01:13:14;;;;;;;3.13;1.40;;;12.30;67.00;;;;;;5015253;28;20041;-76
2022/04/11 01:15:41;;;;;;;2.25;1.23;;;12.30;67.00;;;;;;5025073;28;20465;-78
2022/04/11 01:18:09;;;;;;;2.28;1.20;;;12.30;67.00;;;;;;5018563;28;20045;-76
2022/04/11 01:20:37;;;;;;;2.38;1.33;;;12.30;66.90;;;;;;5020590;28;20099;-74
2022/04/11 01:23:06;;;;;;;2.30;1.27;;;12.30;67.00;;;;;;5017483;28;20037;-76
2022/04/11 01:25:33;;;;;;;3.05;1.40;;;12.30;67.00;;;;;;5003990;28;20052;-75
2022/04/11 01:28:01;;;;;;;2.15;1.30;;;12.30;66.90;;;;;;5027734;28;20058;-75
2022/04/11 01:30:28;;;;;;;2.40;1.58;;;12.30;66.90;;;;;;5020485;28;20041;-76
2022/04/11 01:32:55;;;;;;;1.90;1.20;;;12.30;66.90;;;;;;5019367;28;20049;-77
2022/04/11 01:35:24;;;;;;;1.75;1.20;;;12.30;67.00;;;;;;5024607;28;20037;-74
2022/04/11 01:37:51;;;;;;;1.80;1.10;;;12.30;66.90;;;;;;5019923;28;20143;-76
2022/04/11 01:40:19;;;;;;;2.17;1.35;;;12.20;66.80;;;;;;5022419;28;20046;-75
2022/04/11 01:42:46;;;;;;;2.15;1.42;;;12.30;66.90;;;;;;5020392;28;20144;-76
2022/04/11 01:45:13;;;;;;;1.90;1.05;;;12.30;67.00;;;;;;5020192;28;20107;-76
2022/04/11 01:47:41;;;;;;;1.83;1.23;;;12.30;67.00;;;;;;5018770;28;20049;-74
2022/04/11 01:50:09;;;;;;;1.80;1.20;;;12.30;67.70;;;;;;5021204;28;20110;-75
2022/04/11 01:52:35;;;;;;;1.70;1.25;;;12.30;66.90;;;;;;5017679;28;20044;-75
2022/04/11 01:55:04;;;;;;;2.50;1.20;;;12.30;67.00;;;;;;5021199;28;20128;-74
2022/04/11 01:57:32;;;;;;;2.70;1.40;;;12.30;66.90;;;;;;5017825;28;20108;-75
2022/04/11 01:59:59;;;;;;;2.08;1.27;;;12.30;67.00;;;;;;5022021;28;20045;-75
2022/04/11 02:02:26;;;;;;;2.72;1.40;;;12.20;66.80;;;;;;5020575;28;20134;-75
2022/04/11 02:04:53;;;;;;;1.67;1.20;;;12.30;67.00;;;;;;5028511;28;20045;-77
2022/04/11 02:07:19;;;;;;;2.10;1.20;;;12.30;67.00;;;;;;5029175;28;20120;-74
2022/04/11 02:09:46;;;;;;;1.80;1.20;;;12.30;67.00;;;;;;5023159;28;20045;-75
2022/04/11 02:12:13;;;;;;;2.05;1.30;;;12.20;66.80;;;;;;5014403;28;20124;-75
2022/04/11 02:14:42;;;;;;;2.83;1.50;;;12.20;66.70;;;;;;5016129;28;20047;-76
2022/04/11 02:17:08;;;;;;;2.30;1.20;;;12.20;66.80;;;;;;5025829;28;20038;-76
2022/04/11 02:19:35;;;;;;;1.70;1.27;;;12.20;66.80;;;;;;5017402;28;20044;-74
2022/04/11 02:22:02;;;;;;;2.30;1.40;;;12.20;66.80;;;;;;5020371;28;20504;-75
2022/04/11 02:24:29;;;;;;;1.75;1.20;;;12.20;66.70;;;;;;5017730;28;20049;-78
2022/04/11 02:26:56;;;;;;;2.72;1.25;;;12.20;66.80;;;;;;5020284;28;20045;-77
2022/04/11 02:29:22;;;;;;;1.88;1.20;;;12.20;66.80;;;;;;5019863;28;20049;-77
2022/04/11 02:31:51;;;;;;;1.80;1.20;;;12.20;66.60;;;;;;5014146;28;20046;-75
2022/04/11 02:34:18;;;;;;;2.13;1.30;;;12.20;66.80;;;;;;5015211;28;20068;-76
2022/04/11 02:36:45;;;;;;;2.38;1.38;;;12.20;66.80;;;;;;5018622;28;20042;-74
2022/04/11 02:39:12;;;;;;;2.63;1.38;;;12.20;66.80;;;;;;5021214;28;20124;-75
2022/04/11 02:41:39;;;;;;;2.00;1.20;;;12.20;66.80;;;;;;5022842;28;20045;-76
2022/04/11 02:44:06;;;;;;;1.85;1.20;;;12.20;66.80;;;;;;5007490;28;20064;-75
2022/04/11 02:46:33;;;;;;;1.88;1.25;;;12.20;66.80;;;;;;5022904;28;20049;-76
2022/04/11 02:49:01;;;;;;;1.90;1.10;;;12.20;66.80;;;;;;5022112;28;20055;-75
2022/04/11 02:51:28;;;;;;;2.75;1.27;;;12.20;66.90;;;;;;5022107;28;20120;-77
2022/04/11 02:53:55;;;;;;;1.73;1.20;;;12.20;66.90;;;;;;5023074;28;20053;-76
2022/04/11 02:56:22;;;;;;;1.50;1.08;;;12.20;66.80;;;;;;5025996;28;20049;-76
2022/04/11 02:58:49;;;;;;;1.63;1.10;;;12.20;66.90;;;;;;5023834;28;20100;-75
2022/04/11 03:01:16;;;;;;;1.60;1.10;;;12.20;67.00;;;;;;5035814;28;20045;-75
2022/04/11 03:03:43;;;;;;;1.83;1.20;;;12.20;66.90;;;;;;5036445;28;20037;-74
2022/04/11 03:06:11;;;;;;;3.33;1.40;;;12.20;66.90;;;;;;5030406;28;20041;-75
2022/04/11 03:08:38;;;;;;;1.98;1.30;;;12.20;66.90;;;;;;5023519;28;20053;-76
2022/04/11 03:11:05;;;;;;;1.55;1.17;;;12.20;67.00;;;;;;5025576;28;20099;-76
2022/04/11 03:13:32;;;;;;;1.80;1.20;;;12.20;66.90;;;;;;5022753;28;20052;-76
2022/04/11 03:15:59;;;;;;;2.33;1.30;;;12.20;66.90;;;;;;5020790;28;20044;-75
2022/04/11 03:18:25;;;;;;;1.85;1.15;;;12.20;67.00;;;;;;5018453;28;20041;-76
2022/04/11 03:20:52;;;;;;;2.38;1.10;;;12.20;66.90;;;;;;5025563;28;20046;-75
2022/04/11 03:23:20;;;;;;;2.10;1.23;;;12.20;66.90;;;;;;5004984;28;20157;-77
2022/04/11 03:25:47;;;;;;;2.20;1.20;;;12.20;66.90;;;;;;5023649;28;20053;-76
2022/04/11 03:28:14;;;;;;;2.92;1.20;;;12.20;66.90;;;;;;5021162;28;20037;-76
2022/04/11 03:30:41;;;;;;;1.73;1.20;;;12.20;66.90;;;;;;5023152;28;20484;-75
2022/04/11 03:33:08;;;;;;;1.75;1.20;;;12.20;66.90;;;;;;5004846;28;20444;-78
2022/04/11 03:35:34;;;;;;;2.38;1.40;;;12.20;67.00;;;;;;5020024;28;20056;-78
2022/04/11 03:38:01;;;;;;;2.15;1.27;;;12.20;67.00;;;;;;4997178;28;20050;-77
2022/04/11 03:40:29;;;;;;;2.17;1.20;;;12.20;66.90;;;;;;5016447;28;20432;-76
2022/04/11 03:42:56;;;;;;;2.05;1.40;;;12.10;66.80;;;;;;5000797;28;20056;-74
2022/04/11 03:45:23;;;;;;;1.60;1.23;;;12.20;67.00;;;;;;5019520;28;20048;-75
2022/04/11 03:47:49;;;;;;;1.52;1.05;;;12.10;66.80;;;;;;5021902;28;20052;-75
2022/04/11 03:50:16;;;;;;;1.85;1.25;;;12.10;66.90;;;;;;5004705;28;20459;-75
2022/04/11 03:52:43;;;;;;;2.25;1.20;;;12.10;66.80;;;;;;5009460;28;20049;-76
2022/04/11 03:55:10;;;;;;;1.90;1.35;;;12.10;66.90;;;;;;5022022;28;20056;-77
2022/04/11 03:57:38;;;;;;;2.40;1.13;;;12.10;66.90;;;;;;5016111;28;20050;-75
2022/04/11 04:00:06;;;;;;;2.97;1.25;;;12.10;66.90;;;;;;5021627;28;20117;-76
2022/04/11 04:02:33;;;;;;;1.95;1.20;;;12.10;66.90;;;;;;5020142;28;20102;-76
2022/04/11 04:05:00;;;;;;;1.95;1.20;;;12.10;66.90;;;;;;5020373;28;20265;-75
2022/04/11 04:07:27;;;;;;;2.63;1.35;;;12.10;66.90;;;;;;5021327;28;20157;-77
2022/04/11 04:09:56;;;;;;;2.30;1.27;;;12.10;66.80;;;;;;5024870;28;20045;-76
2022/04/11 04:12:23;;;;;;;2.70;1.30;;;12.10;66.80;;;;;;5023255;28;20045;-76
2022/04/11 04:14:51;;;;;;;2.10;1.40;;;12.10;66.90;;;;;;5025722;28;20051;-74
2022/04/11 04:17:18;;;;;;;2.50;1.25;;;12.10;66.80;;;;;;5035279;28;20044;-75
2022/04/11 04:19:45;;;;;;;2.10;1.30;;;12.10;66.80;;;;;;5021324;28;20080;-75
2022/04/11 04:22:12;;;;;;;1.50;1.10;;;12.10;66.80;;;;;;5018727;28;20042;-74
2022/04/11 04:24:40;;;;;;;1.60;1.10;;;12.10;66.80;;;;;;5022653;28;20041;-74
2022/04/11 04:27:08;;;;;;;1.98;1.33;;;12.10;66.90;;;;;;5024712;28;20053;-74
2022/04/11 04:29:35;;;;;;;1.77;1.15;;;12.20;66.90;;;;;;5012487;28;20170;-73
2022/04/11 04:32:04;;;;;;;2.53;1.40;;;12.10;66.90;;;;;;5020845;28;20068;-72
2022/04/11 04:34:31;;;;;;;2.55;1.30;;;12.10;66.80;;;;;;5005478;28;20057;-72
2022/04/11 04:36:58;;;;;;;2.05;1.30;;;12.10;66.80;;;;;;5006199;28;20038;-75
2022/04/11 04:39:25;;;;;;;1.92;1.23;;;12.10;66.90;;;;;;5021650;28;20033;-74
2022/04/11 04:41:52;;;;;;;2.72;1.30;;;12.10;66.70;;;;;;5022120;28;20037;-74
2022/04/11 04:44:19;;;;;;;3.28;1.50;;;12.10;66.70;;;;;;5020303;28;20041;-76
2022/04/11 04:46:45;;;;;;;1.85;1.33;;;12.10;66.70;;;;;;4997276;28;20154;-73
2022/04/11 04:49:16;;;;;;;1.70;1.20;;;12.10;66.70;;;;;;5025827;28;20065;-73
2022/04/11 04:51:45;;;;;;;2.13;1.25;;;12.10;66.70;;;;;;5028345;28;20037;-72
2022/04/11 04:54:17;;;;;;;2.15;1.27;;;12.10;66.70;;;;;;5024674;28;20052;-75
2022/04/11 04:56:49;;;;;;;2.85;1.45;;;12.00;66.50;;;;;;5028135;28;20067;-73
2022/04/11 04:59:16;;;;;;;2.75;1.50;;;12.00;66.60;;;;;;5030779;28;20057;-73
2022/04/11 05:01:46;;;;;;;2.10;1.40;;;12.00;66.60;;;;;;5026721;28;20095;-75
2022/04/11 05:04:14;;;;;;;1.90;1.30;;;12.00;66.60;;;;;;5017971;28;20045;-74
2022/04/11 05:06:41;;;;;;;2.55;1.50;;;12.00;66.50;;;;;;5021231;28;20136;-73
2022/04/11 05:09:08;;;;;;;2.28;1.45;;;12.00;66.50;;;;;;5002335;28;20131;-76
2022/04/11 05:11:35;;;;;;;3.00;1.35;;;12.00;66.50;;;;;;5021073;28;20055;-76
2022/04/11 05:14:02;;;;;;;2.17;1.40;;;12.00;66.60;;;;;;5017863;28;20150;-75
2022/04/11 05:16:28;;;;;;;4.15;2.20;;;12.00;67.30;;;;;;5014059;28;20133;-75
2022/04/11 05:18:56;;;;;;;4.07;2.00;;;11.70;64.40;;;;;;5020141;28;20044;-75
2022/04/11 05:21:25;;;;;;;3.42;1.80;;;11.70;65.50;;;;;;5022076;28;20056;-76
2022/04/11 05:23:53;;;;;;;2.90;1.88;;;11.80;65.70;;;;;;5025201;28;20084;-76
2022/04/11 05:26:19;;;;;;;2.85;1.98;;;11.90;65.20;;;;;;5024763;28;20125;-74
2022/04/11 05:28:48;;;;;;;3.40;2.20;;;11.90;65.00;;;;;;5022147;28;20095;-75
2022/04/11 05:31:16;;;;;;;4.07;2.00;;;11.90;64.90;;;;;;5028291;28;20118;-75
2022/04/11 05:33:42;;;;;;;3.17;1.90;;;11.90;64.80;;;;;;5023722;28;20040;-75
2022/04/11 05:36:09;;;;;;;2.63;1.80;;;11.90;64.80;;;;;;5022257;28;20045;-78
2022/04/11 05:38:37;;;;;;;3.13;1.73;;;11.90;65.00;;;;;;5000799;28;20416;-75
2022/04/11 05:41:04;;;;;;;2.35;1.73;;;11.90;65.10;;;;;;5012391;28;20033;-76
2022/04/11 05:43:33;;;;;;;2.85;1.70;;;11.90;65.10;;;;;;5019428;28;20049;-76
2022/04/11 05:46:01;;;;;;;2.72;1.85;;;11.90;65.00;;;;;;5022366;28;20120;-78
2022/04/11 05:48:30;;;;;;;3.58;1.67;;;11.90;65.30;;;;;;5016781;28;20170;-75
2022/04/11 05:50:59;;;;;;;2.67;1.80;;;11.90;65.30;;;;;;5003054;28;20060;-75
2022/04/11 05:53:26;;;;;;;2.40;1.65;;;11.90;65.30;;;;;;5011870;28;20099;-75
2022/04/11 05:55:54;;;;;;;2.90;1.70;;;12.00;65.50;;;;;;5021374;28;20132;-75
2022/04/11 05:58:21;;;;;;;2.80;1.70;;;12.00;65.50;;;;;;5019302;28;20055;-75
2022/04/11 06:00:48;;;;;;;2.67;1.90;;;12.00;65.40;;;;;;5020842;28;20056;-75
2022/04/11 06:03:15;;;;;;;3.33;1.70;;;12.00;65.50;;;;;;5018962;28;20269;-76
2022/04/11 06:05:42;;;;;;;3.47;1.80;;;12.00;65.50;;;;;;5018971;28;20049;-75
2022/04/11 06:08:09;;;;;;;2.28;1.60;;;12.00;65.50;;;;;;5020211;28;20129;-76
2022/04/11 06:10:36;;;;;;;2.22;1.70;;;11.90;65.30;;;;;;5024586;28;20038;-76
2022/04/11 06:13:05;;;;;;;3.30;1.70;;;12.00;65.20;;;;;;5022404;28;20045;-75
2022/04/11 06:15:32;;;;;;;2.65;1.77;;;12.00;65.20;;;;;;5026147;28;20123;-74
2022/04/11 06:17:59;;;;;;;2.28;1.60;;;12.00;65.20;;;;;;5023487;28;20125;-76
2022/04/11 06:20:25;;;;;;;3.08;1.65;;;12.00;65.10;;;;;;5023196;28;20096;-74
2022/04/11 06:22:52;;;;;;;2.03;1.40;;;12.00;65.20;;;;;;5024267;28;20122;-74
2022/04/11 06:25:19;;;;;;;4.85;1.70;;;12.00;65.20;;;;;;5026873;28;20069;-73
2022/04/11 06:27:46;;;;;;;2.38;1.55;;;12.00;65.20;;;;;;5025892;28;20045;-76
2022/04/11 06:30:15;;;;;;;2.50;1.70;;;12.00;65.00;;;;;;5013377;28;20048;-75
2022/04/11 06:32:41;;;;;;;2.53;1.58;;;12.00;65.00;;;;;;5033438;28;20061;-75
2022/04/11 06:35:09;;;;;;;2.40;1.52;;;12.00;65.00;;;;;;5024914;28;20046;-75
2022/04/11 06:37:36;;;;;;;2.30;1.55;;;12.00;65.10;;;;;;5026086;28;20053;-74
2022/04/11 06:40:04;;;;;;;4.15;1.70;;;12.00;65.20;;;;;;5024227;28;20045;-73
2022/04/11 06:42:31;;;;;;;2.90;1.70;;;12.00;65.20;;;;;;5017732;28;20434;-76
2022/04/11 06:44:57;;;;;;;2.50;1.38;;;12.00;65.30;;;;;;5002949;28;20050;-76
2022/04/11 06:47:26;;;;;;;2.55;1.50;;;12.00;65.30;;;;;;5001904;28;20057;-76
2022/04/11 06:49:52;;;;;;;2.08;1.40;;;12.00;65.30;;;;;;5022704;28;20113;-76
2022/04/11 06:52:19;;;;;;;3.22;1.80;;;12.00;65.30;;;;;;5030824;28;20053;-74
2022/04/11 06:54:46;;;;;;;2.53;1.48;;;12.00;65.20;;;;;;5048308;28;20075;-73
2022/04/11 06:57:13;;;;;;;2.17;1.50;;;12.10;65.40;;;;;;5043243;28;20041;-73
2022/04/11 06:59:40;;;;;;;2.40;1.80;;;12.10;65.40;;;;;;5028234;28;20503;-75
2022/04/11 07:02:08;;;;;;;2.25;1.42;;;12.10;65.40;;;;;;5024573;28;20120;-75
2022/04/11 07:04:36;;;;;;;2.42;1.40;;;12.10;65.50;;;;;;5022167;28;20041;-74
2022/04/11 07:07:03;;;;;;;3.53;1.65;;;12.10;65.50;;;;;;5009898;28;20069;-74
2022/04/11 07:09:31;;;;;;;2.08;1.27;;;12.10;65.50;;;;;;4990061;28;20091;-76
2022/04/11 07:11:58;;;;;;;2.10;1.30;;;12.10;65.50;;;;;;5028108;28;20055;-75
2022/04/11 07:14:25;;;;;;;1.85;1.30;;;12.10;65.50;;;;;;5022339;28;20045;-74
2022/04/11 07:16:52;;;;;;;2.38;1.40;;;12.20;65.70;;;;;;5024561;28;20056;-74
2022/04/11 07:19:19;;;;;;;2.20;1.20;;;12.10;65.50;;;;;;5016414;28;20052;-76
2022/04/11 07:21:50;;;;;;;2.25;1.30;;;12.10;65.60;;;;;;5022607;28;20048;-75
2022/04/11 07:24:17;;;;;;;1.92;1.20;;;12.20;65.60;;;;;;5013376;28;20042;-76
2022/04/11 07:26:44;;;;;;;4.03;1.42;;;12.20;65.70;;;;;;5024608;28;20045;-75
2022/04/11 07:29:11;;;;;;;1.92;1.10;;;12.20;65.70;;;;;;5005149;28;20054;-75
2022/04/11 07:31:38;;;;;;;2.22;1.40;;;12.20;65.70;;;;;;5005992;28;20047;-75
2022/04/11 07:34:04;;;;;;;4.05;1.38;;;12.20;65.60;;;;;;5022423;28;20148;-75
2022/04/11 07:36:31;;;;;;;2.28;1.30;;;12.20;65.60;;;;;;5006915;28;20050;-74
2022/04/11 07:39:00;;;;;;;2.20;1.10;;;12.20;65.70;;;;;;5021346;28;20045;-73
2022/04/11 07:41:27;;;;;;;2.45;1.35;;;12.20;65.70;;;;;;5026216;28;20730;-75
2022/04/11 07:43:54;;;;;;;2.42;1.30;;;12.20;65.60;;;;;;5018061;28;20072;-74
2022/04/11 07:46:21;;;;;;;2.05;1.25;;;12.20;65.60;;;;;;5027142;28;20042;-74
2022/04/11 07:48:48;;;;;;;3.22;1.52;;;12.20;65.60;;;;;;5025236;28;20049;-72
2022/04/11 07:51:15;;;;;;;2.35;1.30;;;12.20;65.50;;;;;;5024806;28;20057;-73
2022/04/11 07:53:42;;;;;;;2.80;1.20;;;12.20;65.60;;;;;;5023048;28;20037;-72
2022/04/11 07:56:10;;;;;;;1.75;1.15;;;12.30;65.70;;;;;;5006949;28;20049;-73
2022/04/11 07:58:37;;;;;;;1.88;1.25;;;12.30;65.70;;;;;;5014176;28;20460;-72
2022/04/11 08:01:04;;;;;;;1.80;1.13;;;12.30;65.70;;;;;;5003364;28;20046;-74
2022/04/11 08:03:31;;;;;;;2.28;1.20;;;12.30;65.70;;;;;;5002522;28;20455;-72
2022/04/11 08:05:57;;;;;;;2.28;1.30;;;12.30;65.70;;;;;;5003204;28;20046;-72
2022/04/11 08:08:24;;;;;;;2.15;1.10;;;12.30;65.70;;;;;;5006230;28;20050;-72
2022/04/11 08:10:51;;;;;;;2.92;1.35;;;12.30;65.70;;;;;;4984834;28;20073;-74
2022/04/11 08:13:19;;;;;;;2.20;1.17;;;12.30;65.70;;;;;;5003563;28;20048;-72
2022/04/11 08:15:46;;;;;;;1.75;1.10;;;12.30;65.70;;;;;;4990081;28;20056;-74
2022/04/11 08:18:13;;;;;;;2.15;1.25;;;12.30;65.70;;;;;;4988168;28;20120;-73
2022/04/11 08:20:45;;;;;;;2.38;1.20;;;12.30;65.70;;;;;;5012556;28;20042;-73
2022/04/11 08:23:12;;;;;;;1.85;0.98;;;12.40;65.80;;;;;;5023105;28;20046;-72
2022/04/11 08:25:39;;;;;;;3.15;1.35;;;12.40;65.80;;;;;;5004936;28;20042;-73
2022/04/11 08:28:06;;;;;;;2.05;1.15;;;12.40;65.80;;;;;;5002577;28;20121;-71
2022/04/11 08:30:34;;;;;;;1.90;1.20;;;12.40;65.80;;;;;;5003712;28;20046;-72
2022/04/11 08:33:01;;;;;;;2.03;1.10;;;12.40;65.80;;;;;;5003159;28;20046;-72
2022/04/11 08:35:28;;;;;;;2.47;1.17;;;12.40;65.80;;;;;;4995870;28;20062;-72
2022/04/11 08:37:57;;;;;;;1.70;1.10;;;12.40;65.90;;;;;;5011282;28;20049;-74
2022/04/11 08:40:24;;;;;;;2.25;1.20;;;12.40;65.90;;;;;;5006326;28;20060;-72
2022/04/11 08:42:51;;;;;;;1.55;0.98;;;12.40;65.90;;;;;;5012107;28;20105;-72
2022/04/11 08:45:20;;;;;;;2.47;1.10;;;12.40;65.90;;;;;;5009569;28;20037;-73
2022/04/11 08:47:50;;;;;;;1.80;1.02;;;12.40;65.90;;;;;;5005903;28;20049;-74
2022/04/11 08:50:18;;;;;;;2.08;0.80;;;12.40;65.90;;;;;;5018921;28;20037;-72
2022/04/11 08:52:49;;;;;;;1.42;1.00;;;12.50;66.10;;;;;;5019102;28;20046;-72
2022/04/11 08:55:16;;;;;;;1.65;0.93;;;12.50;66.10;;;;;;5024068;28;20107;-73
2022/04/11 08:57:43;;;;;;;2.22;1.20;;;12.50;66.10;;;;;;5004928;28;20038;-73
2022/04/11 09:00:13;;;;;;;2.20;1.10;;;12.50;66.10;;;;;;4991910;28;20049;-72
2022/04/11 09:02:42;;;;;;;1.80;1.00;;;12.50;66.10;;;;;;4997222;28;20054;-72
2022/04/11 09:05:11;;;;;;;1.92;0.98;;;12.50;66.10;;;;;;4996343;28;20045;-73
2022/04/11 09:07:46;;;;;;;2.55;1.17;;;12.50;66.10;;;;;;4997436;28;20049;-74
2022/04/11 09:10:13;;;;;;;1.60;1.00;;;12.50;66.10;;;;;;5000216;28;20058;-72
2022/04/11 09:12:48;;;;;;;1.23;0.90;;;12.50;66.10;;;;;;4982361;28;20049;-73
2022/04/11 09:15:15;;;;;;;2.40;0.90;;;12.60;66.20;;;;;;4997467;28;20214;-72
2022/04/11 09:17:42;;;;;;;2.58;1.10;;;12.60;66.20;;;;;;5002726;28;20050;-74
2022/04/11 09:20:13;;;;;;;2.03;1.00;;;12.60;66.30;;;;;;5000842;28;20427;-74
2022/04/11 09:22:40;;;;;;;2.17;1.00;;;12.60;66.20;;;;;;5014120;28;20100;-74
2022/04/11 09:25:12;;;;;;;1.98;0.95;;;12.60;66.30;;;;;;5007573;28;20035;-73
2022/04/11 09:27:42;;;;;;;2.17;1.00;;;12.60;66.20;;;;;;5008967;28;20065;-74
2022/04/11 09:30:19;;;;;;;1.80;0.90;;;12.60;66.30;;;;;;4997139;28;20370;-75
2022/04/11 09:32:54;;;;;;;1.58;0.88;;;12.60;66.30;;;;;;5004484;28;20076;-73
2022/04/11 09:35:23;;;;;;;1.83;0.82;;;12.60;66.20;;;;;;4991292;28;20058;-74
2022/04/11 09:38:06;;;;;;;1.38;0.77;;;12.60;66.30;;;;;;5013067;28;20052;-72
2022/04/11 09:40:36;;;;;;;2.13;0.90;;;12.70;66.40;;;;;;5001927;28;20057;-72
2022/04/11 09:43:03;;;;;;;2.55;1.00;;;12.70;66.40;;;;;;5000851;28;20052;-74
2022/04/11 09:45:30;;;;;;;3.25;0.90;;;12.70;66.40;;;;;;5005672;28;20068;-74
2022/04/11 09:48:02;;;;;;;1.60;0.93;;;12.70;66.40;;;;;;4988054;28;20042;-73
2022/04/11 09:50:31;;;;;;;3.27;1.13;;;12.70;66.40;;;;;;4987845;28;20129;-72
2022/04/11 09:53:11;;;;;;;1.77;0.90;;;12.70;66.20;;;;;;5004043;28;20038;-76
2022/04/11 09:55:39;;;;;;;3.83;1.10;;;12.70;66.20;;;;;;5013454;28;20053;-75
2022/04/11 09:58:07;;;;;;;3.00;0.93;;;12.70;66.20;;;;;;4991887;28;21235;-76
2022/04/11 10:00:35;;;;;;;1.83;0.90;;;12.80;66.30;;;;;;4980960;28;20045;-77
2022/04/11 10:03:03;;;;;;;19.15;2.08;;;12.80;66.30;;;;;;4999254;28;20127;-77
2022/04/11 10:05:32;;;;;;;15.57;2.08;;;12.80;67.00;;;;;;4998311;28;20057;-78
2022/04/11 10:08:00;;;;;;;9.52;1.48;;;12.80;66.10;;;;;;5001482;28;20060;-76
2022/04/11 10:10:27;;;;;;;8.90;1.42;;;12.80;66.10;;;;;;5000519;28;20046;-75
2022/04/11 10:12:56;;;;;;;14.10;1.83;;;12.80;66.10;;;;;;4998970;28;20046;-75
2022/04/11 10:15:24;;;;;;;11.48;1.55;;;12.80;66.30;;;;;;4987647;28;20045;-73
2022/04/11 10:17:54;;;;;;;11.23;1.60;;;12.90;66.80;;;;;;4998300;28;20227;-74
2022/04/11 10:20:29;;;;;;;10.40;1.55;;;12.90;66.70;;;;;;5000584;28;20042;-75
2022/04/11 10:23:03;;;;;;;7.30;1.40;;;12.90;66.70;;;;;;4995840;28;20124;-74
2022/04/11 10:25:32;;;;;;;8.50;1.63;;;12.90;66.60;;;;;;5000928;28;20052;-74
2022/04/11 10:28:20;;;;;;;12.75;1.55;;;13.00;66.70;;;;;;4999955;28;20042;-72
2022/04/11 10:31:04;;;;;;;7.38;1.33;;;12.90;67.30;;;;;;4994554;28;20058;-72
2022/04/11 10:33:45;;;;;;;9.90;1.60;;;13.00;66.50;;;;;;4996060;28;20045;-72
2022/04/11 10:36:35;;;;;;;7.47;1.42;;;13.00;66.50;;;;;;4992090;28;20073;-73
2022/04/11 10:39:26;;;;;;;5.18;1.50;;;13.00;66.40;;;;;;5001573;28;20041;-73
2022/04/11 10:42:09;;;;;;;5.72;1.40;;;13.00;66.30;;;;;;5000469;28;20504;-73
2022/04/11 10:44:38;;;;;;;8.65;1.45;;;13.00;66.30;;;;;;4976587;28;20056;-73
2022/04/11 10:47:23;;;;;;;4.28;1.27;;;13.00;66.30;;;;;;5005792;28;20104;-71
2022/04/11 10:50:27;;;;;;;5.70;1.42;;;13.00;66.20;;;;;;5009487;28;20050;-72
2022/04/11 10:53:23;;;;;;;4.53;1.30;;;13.00;66.20;;;;;;5009802;28;20049;-71
2022/04/11 10:56:00;;;;;;;8.23;1.50;;;13.00;66.20;;;;;;5008012;28;20056;-72
2022/04/11 10:58:42;;;;;;;3.40;1.08;;;13.00;66.20;;;;;;5007198;28;20129;-74
2022/04/11 11:01:09;;;;;;;5.78;1.17;;;13.00;66.30;;;;;;5001307;28;20435;-73
2022/04/11 11:03:39;;;;;;;2.70;1.02;;;13.00;66.30;;;;;;5019232;28;20447;-72
2022/04/11 11:06:18;;;;;;;3.67;1.20;;;13.10;66.40;;;;;;5025806;28;20163;-74
2022/04/11 11:08:46;;;;;;;4.22;1.15;;;13.10;66.30;;;;;;5027648;28;20049;-72
2022/04/11 11:11:26;;;;;;;7.68;1.02;;;13.10;66.30;;;;;;5028842;28;20050;-74
2022/04/11 11:13:55;;;;;;;3.97;1.20;;;13.10;66.30;;;;;;5020663;28;20057;-74
2022/04/11 11:16:36;;;;;;;4.97;1.00;;;13.10;66.20;;;;;;5023596;28;20492;-73
2022/04/11 11:19:17;;;;;;;4.25;1.10;;;13.10;66.20;;;;;;5008645;28;20065;-76
2022/04/11 11:22:06;;;;;;;2.60;1.00;;;13.10;66.20;;;;;;5004165;28;20056;-75
2022/04/11 11:25:18;;;;;;;3.22;0.93;;;13.10;66.20;;;;;;5020618;28;20042;-72
2022/04/11 11:27:49;;;;;;;2.78;1.08;;;13.10;66.20;;;;;;5012928;28;20045;-74
2022/04/11 11:30:16;;;;;;;2.65;0.90;;;13.10;66.30;;;;;;5022657;28;20099;-73
2022/04/11 11:32:43;;;;;;;5.50;1.10;;;13.10;66.40;;;;;;5005376;28;20104;-74
2022/04/11 11:35:11;;;;;;;8.35;1.00;;;13.10;66.60;;;;;;5026113;28;20046;-76
2022/04/11 11:37:38;;;;;;;3.00;1.00;;;13.20;66.70;;;;;;5002872;28;20629;-74
2022/04/11 11:40:06;;;;;;;2.65;0.93;;;13.20;66.60;;;;;;5022101;28;20112;-75
2022/04/11 11:42:37;;;;;;;3.78;1.02;;;13.20;66.40;;;;;;5001891;28;20076;-76
2022/04/11 11:45:07;;;;;;;2.33;0.90;;;13.20;66.40;;;;;;5022665;28;20041;-75
2022/04/11 11:47:35;;;;;;;2.47;0.93;;;13.20;66.20;;;;;;5022121;28;20067;-74
2022/04/11 11:50:04;;;;;;;2.70;1.05;;;13.20;66.20;;;;;;5021448;28;20040;-76
2022/04/11 11:52:31;;;;;;;2.90;0.90;;;13.20;66.20;;;;;;5021062;28;20107;-74
2022/04/11 11:54:58;;;;;;;2.33;0.80;;;13.20;66.20;;;;;;5023563;28;20053;-74
2022/04/11 11:57:26;;;;;;;2.80;0.90;;;13.20;66.20;;;;;;4999001;28;20177;-75
2022/04/11 11:59:55;;;;;;;1.98;0.80;;;13.20;67.00;;;;;;5018177;28;20123;-76
2022/04/11 12:05:22;;;;;;;2.13;1.00;;;13.20;66.30;;;;;;4946685;28;20059;-75
2022/04/11 12:07:50;;;;;;;2.05;0.80;;;13.20;66.30;;;;;;5022187;28;20049;-74
2022/04/11 12:10:20;;;;;;;2.42;0.90;;;13.20;66.30;;;;;;5022802;28;20045;-75
2022/04/11 12:12:48;;;;;;;2.10;0.90;;;13.20;66.30;;;;;;5003167;28;20403;-75
2022/04/11 12:15:15;;;;;;;3.22;0.90;;;13.20;66.30;;;;;;5021775;28;20052;-73
2022/04/11 12:17:47;;;;;;;1.63;0.63;;;13.20;66.40;;;;;;5021074;28;20060;-74
2022/04/11 12:20:16;;;;;;;1.77;0.70;;;13.20;66.30;;;;;;5023254;28;20815;-74
2022/04/11 12:23:01;;;;;;;1.90;0.80;;;13.20;66.40;;;;;;5020735;28;20120;-75
2022/04/11 12:25:30;;;;;;;1.80;0.70;;;13.20;66.30;;;;;;5021586;28;20099;-73
2022/04/11 12:28:18;;;;;;;2.88;1.02;;;13.20;66.30;;;;;;5019824;28;20037;-76
2022/04/11 12:30:48;;;;;;;2.40;0.77;;;13.20;66.40;;;;;;5020535;28;20063;-74
2022/04/11 12:33:34;;;;;;;2.35;0.80;;;13.20;66.40;;;;;;5017476;28;20137;-75
2022/04/11 12:36:08;;;;;;;1.95;0.80;;;13.20;66.40;;;;;;5021315;28;20417;-75
2022/04/11 12:38:43;;;;;;;2.88;0.80;;;13.20;66.30;;;;;;5018353;28;20057;-74
2022/04/11 12:41:27;;;;;;;3.00;0.80;;;13.20;66.30;;;;;;5006126;28;20839;-75
2022/04/11 12:44:10;;;;;;;1.83;0.70;;;13.20;66.30;;;;;;5020018;28;20038;-73
2022/04/11 12:46:39;;;;;;;1.58;0.77;;;13.20;66.40;;;;;;5036508;28;20046;-76
2022/04/11 12:49:09;;;;;;;2.35;0.80;;;13.20;66.40;;;;;;5030802;28;20061;-76
2022/04/11 12:51:36;;;;;;;2.95;0.82;;;13.20;66.40;;;;;;5006197;28;20072;-75
2022/04/11 12:54:05;;;;;;;1.55;0.75;;;13.20;66.40;;;;;;5017959;28;20045;-74
2022/04/11 12:56:42;;;;;;;1.50;0.70;;;13.20;66.40;;;;;;5021126;28;20041;-75
2022/04/11 12:59:10;;;;;;;1.98;0.95;;;13.20;66.40;;;;;;4998110;28;20060;-75